Time;durP1;ratioP1;P1;durP2;ratioP2;P2;SDS_P1;SDS_P2;PMS_P1;PMS_P2;Temp;Humidity;BMP_temperature;BMP_pressure;BME280_temperature;BME280_humidity;BME280_pressure;Samples;Min_cycle;Max_cycle;Signal;HPM_P1;HPM_P2
2021/05/29 00:07:21;;;;;;;5.53;3.10;;;11.10;99.90;;;;;;6730434;88;20298;-77
2021/05/29 00:17:21;;;;;;;5.40;3.37;;;11.10;99.90;;;;;;6730861;88;20186;-76
2021/05/29 00:27:22;;;;;;;5.22;3.40;;;11.00;99.90;;;;;;6732018;88;20178;-75
2021/05/29 00:37:22;;;;;;;5.97;3.50;;;10.90;99.90;;;;;;6731380;88;20204;-77
2021/05/29 00:47:25;;;;;;;6.80;3.30;;;10.80;99.90;;;;;;6728591;88;20220;-77
2021/05/29 00:57:26;;;;;;;5.45;3.30;;;10.80;99.90;;;;;;6730573;88;20228;-76
2021/05/29 01:07:26;;;;;;;6.60;3.20;;;10.60;99.90;;;;;;6730843;88;20223;-76
2021/05/29 01:17:29;;;;;;;4.93;3.00;;;10.70;99.90;;;;;;6730243;88;20208;-76
2021/05/29 01:27:29;;;;;;;6.93;3.30;;;10.30;99.90;;;;;;6729727;88;20239;-75
2021/05/29 01:37:30;;;;;;;7.30;3.40;;;10.10;99.90;;;;;;6732112;88;20182;-75
2021/05/29 01:47:33;;;;;;;11.15;4.57;;;10.10;99.90;;;;;;6732707;88;20185;-78
2021/05/29 01:57:34;;;;;;;7.55;4.32;;;9.90;99.90;;;;;;6728577;88;20217;-77
2021/05/29 02:07:34;;;;;;;5.80;3.80;;;9.80;99.90;;;;;;6733286;88;20322;-78
2021/05/29 02:17:35;;;;;;;5.35;3.15;;;9.80;99.90;;;;;;6734957;88;20198;-77
2021/05/29 02:27:36;;;;;;;5.72;2.90;;;9.70;99.90;;;;;;6735016;88;20793;-74
2021/05/29 02:37:37;;;;;;;4.97;2.90;;;9.20;99.90;;;;;;6731741;88;20236;-76
2021/05/29 02:47:37;;;;;;;6.12;3.10;;;9.30;99.90;;;;;;6735969;88;20181;-75
2021/05/29 02:57:38;;;;;;;6.93;3.00;;;9.10;99.90;;;;;;6733605;88;20241;-76
2021/05/29 03:07:39;;;;;;;4.53;3.08;;;8.80;99.90;;;;;;6723283;88;20342;-76
2021/05/29 03:17:39;;;;;;;5.25;2.92;;;8.80;99.90;;;;;;6718110;88;20756;-76
2021/05/29 03:27:40;;;;;;;6.05;2.83;;;8.70;99.90;;;;;;6719953;88;20254;-76
2021/05/29 03:37:41;;;;;;;5.00;3.25;;;8.80;99.90;;;;;;6718664;88;20178;-76
2021/05/29 03:47:43;;;;;;;5.95;3.00;;;8.80;99.90;;;;;;6718403;88;20659;-76
2021/05/29 03:57:44;;;;;;;5.62;2.92;;;8.70;99.90;;;;;;6719336;88;20344;-76
2021/05/29 04:07:45;;;;;;;6.47;3.47;;;8.80;99.90;;;;;;6718514;88;20254;-76
2021/05/29 04:17:47;;;;;;;5.15;3.22;;;8.50;99.90;;;;;;6720104;88;20190;-76
2021/05/29 04:27:48;;;;;;;5.40;3.20;;;8.60;99.90;;;;;;6719565;88;20684;-76
2021/05/29 04:37:50;;;;;;;6.57;3.50;;;8.60;99.90;;;;;;6721571;88;20231;-76
2021/05/29 04:47:53;;;;;;;5.22;3.40;;;8.70;99.90;;;;;;6719305;88;20202;-76
2021/05/29 04:57:53;;;;;;;5.50;3.15;;;8.80;99.90;;;;;;6726557;88;20276;-77
2021/05/29 05:07:54;;;;;;;7.00;3.60;;;8.80;99.90;;;;;;6721221;88;20828;-76
2021/05/29 05:17:54;;;;;;;8.18;4.05;;;9.20;99.90;;;;;;6720711;88;20650;-76
2021/05/29 05:27:55;;;;;;;6.40;3.78;;;9.50;99.90;;;;;;6721609;88;20204;-76
2021/05/29 05:37:56;;;;;;;5.65;3.60;;;9.60;99.90;;;;;;6715888;88;20217;-76
2021/05/29 05:47:56;;;;;;;5.95;3.78;;;9.60;99.90;;;;;;6717341;88;20315;-76
2021/05/29 05:57:57;;;;;;;7.53;3.83;;;9.90;99.90;;;;;;6720478;88;20189;-76
2021/05/29 06:07:58;;;;;;;6.85;3.80;;;11.10;99.90;;;;;;6717035;88;20260;-76
2021/05/29 06:28:14;;;;;;;8.30;3.70;;;13.00;99.90;;;;;;6717653;88;20205;-76
2021/05/29 06:38:14;;;;;;;5.35;3.30;;;13.90;99.90;;;;;;6714382;88;20230;-76
2021/05/29 06:48:16;;;;;;;5.70;3.00;;;14.50;99.90;;;;;;6712311;88;20712;-76
2021/05/29 07:08:37;;;;;;;3.90;2.42;;;15.80;99.90;;;;;;6708020;88;20189;-76
2021/05/29 07:18:48;;;;;;;3.67;2.30;;;16.90;99.90;;;;;;6712391;88;20177;-74
2021/05/29 07:28:51;;;;;;;3.72;2.60;;;18.20;99.90;;;;;;6713383;88;20213;-77
2021/05/29 07:38:51;;;;;;;2.90;2.20;;;18.30;99.90;;;;;;6707549;88;20193;-74
2021/05/29 07:48:52;;;;;;;3.40;2.33;;;19.00;99.90;;;;;;6710516;88;20198;-74
2021/05/29 07:58:53;;;;;;;3.80;2.30;;;19.70;98.30;;;;;;6711364;88;20207;-74
2021/05/29 08:08:54;;;;;;;3.12;2.28;;;20.30;96.80;;;;;;6716084;88;20943;-74
2021/05/29 08:18:55;;;;;;;4.37;1.87;;;20.10;96.10;;;;;;6704770;88;20265;-74
2021/05/29 08:28:56;;;;;;;3.85;1.60;;;20.50;96.00;;;;;;6716289;88;20197;-75
2021/05/29 08:38:56;;;;;;;4.45;1.50;;;21.10;93.00;;;;;;6716874;88;20189;-77
2021/05/29 08:48:59;;;;;;;4.22;1.80;;;21.80;90.30;;;;;;6718426;88;20198;-76
2021/05/29 08:59:00;;;;;;;2.22;1.60;;;21.60;90.10;;;;;;6712261;88;20224;-76
2021/05/29 09:09:21;;;;;;;3.58;1.55;;;22.10;85.10;;;;;;6746603;77;20953;-79
2021/05/29 09:19:21;;;;;;;2.80;1.27;;;23.10;79.10;;;;;;6736556;88;20178;-79
2021/05/29 09:29:30;;;;;;;2.60;1.70;;;23.60;75.60;;;;;;6738542;88;20219;-78
2021/05/29 09:39:31;;;;;;;4.30;2.20;;;23.80;73.70;;;;;;6724864;88;20195;-77
2021/05/29 09:49:57;;;;;;;4.90;1.73;;;24.10;74.40;;;;;;6744323;88;20279;-79
2021/05/29 10:00:00;;;;;;;4.57;2.00;;;24.70;72.30;;;;;;6727399;88;20181;-77
2021/05/29 10:10:01;;;;;;;5.72;3.03;;;25.50;70.20;;;;;;6726389;88;20214;-80
2021/05/29 10:20:03;;;;;;;4.77;2.30;;;25.80;67.70;;;;;;6723618;88;20190;-79
2021/05/29 10:30:05;;;;;;;5.27;1.80;;;26.00;65.50;;;;;;6723160;88;20212;-79
2021/05/29 10:40:25;;;;;;;3.28;2.12;;;25.70;66.60;;;;;;6725276;88;20533;-82
2021/05/29 10:50:53;;;;;;;2.60;1.90;;;26.50;65.30;;;;;;6712207;88;20428;-78
2021/05/29 11:00:54;;;;;;;4.07;2.30;;;26.90;63.70;;;;;;6713851;88;20190;-77
2021/05/29 11:11:32;;;;;;;2.97;1.75;;;26.50;63.70;;;;;;6708586;88;20215;-77
2021/05/29 11:21:33;;;;;;;3.30;1.80;;;27.50;62.70;;;;;;6707642;88;20206;-76
2021/05/29 11:31:43;;;;;;;3.60;1.60;;;25.60;62.90;;;;;;6710452;88;20320;-76
2021/05/29 11:41:43;;;;;;;2.40;1.60;;;26.40;62.80;;;;;;6713683;88;20341;-78
2021/05/29 11:51:45;;;;;;;2.17;1.40;;;27.20;61.20;;;;;;6717714;88;20991;-77
2021/05/29 12:01:53;;;;;;;3.10;1.40;;;26.00;63.40;;;;;;6720698;88;20636;-76
2021/05/29 12:11:55;;;;;;;4.80;1.80;;;26.40;60.10;;;;;;6719420;88;20182;-77
2021/05/29 12:21:58;;;;;;;4.70;1.60;;;25.40;61.40;;;;;;6715696;88;20356;-76
2021/05/29 12:32:00;;;;;;;3.50;1.60;;;25.00;63.60;;;;;;6716939;88;20179;-77
2021/05/29 12:42:00;;;;;;;2.00;1.45;;;25.20;65.90;;;;;;6710403;88;20199;-78
2021/05/29 12:52:03;;;;;;;3.97;2.00;;;27.00;62.60;;;;;;6717936;88;20181;-77
2021/05/29 13:12:15;;;;;;;2.55;1.90;;;27.30;59.40;;;;;;6705042;88;20190;-76
2021/05/29 13:22:18;;;;;;;3.75;1.80;;;28.00;59.10;;;;;;6716492;88;20189;-77
2021/05/29 13:32:21;;;;;;;3.80;2.53;;;25.60;61.20;;;;;;6720928;88;20193;-77
2021/05/29 13:42:21;;;;;;;7.05;2.75;;;26.90;59.80;;;;;;6711491;88;20244;-79
2021/05/29 13:52:22;;;;;;;3.72;2.83;;;27.30;59.70;;;;;;6712457;88;20746;-78
2021/05/29 14:02:22;;;;;;;4.68;2.87;;;26.90;59.00;;;;;;6715637;88;20960;-77
2021/05/29 14:12:23;;;;;;;3.50;2.83;;;27.00;59.70;;;;;;6717178;88;20206;-77
2021/05/29 14:22:24;;;;;;;7.00;3.03;;;27.40;57.90;;;;;;6710724;88;20220;-79
2021/05/29 14:32:24;;;;;;;4.00;3.10;;;27.00;57.70;;;;;;6725770;88;20205;-77
2021/05/29 14:42:28;;;;;;;5.82;3.40;;;26.80;58.70;;;;;;6712854;88;20195;-77
2021/05/29 14:52:29;;;;;;;5.93;3.90;;;26.50;58.70;;;;;;6716447;88;20208;-74
2021/05/29 15:02:29;;;;;;;6.45;3.47;;;26.70;58.10;;;;;;6714394;88;20240;-77
2021/05/29 15:12:30;;;;;;;5.83;3.60;;;26.50;60.00;;;;;;6717802;88;20215;-77
2021/05/29 15:22:31;;;;;;;6.93;3.50;;;26.00;59.40;;;;;;6735279;88;20192;-77
2021/05/29 15:32:32;;;;;;;8.65;3.58;;;25.50;60.80;;;;;;6717824;88;20259;-75
2021/05/29 15:42:32;;;;;;;4.25;2.90;;;25.50;60.50;;;;;;6701546;88;20244;-78
2021/05/29 15:52:33;;;;;;;5.60;2.65;;;25.10;60.90;;;;;;6708854;88;20202;-77
2021/05/29 16:02:37;;;;;;;4.35;2.70;;;24.50;62.10;;;;;;6703935;88;20189;-76
2021/05/29 16:12:38;;;;;;;4.40;2.70;;;25.30;61.30;;;;;;6717414;88;20826;-78
2021/05/29 16:22:39;;;;;;;5.18;2.20;;;25.70;60.60;;;;;;6721403;88;20280;-78
2021/05/29 16:32:48;;;;;;;3.55;2.10;;;24.80;60.00;;;;;;6711379;88;20724;-77
2021/05/29 16:42:48;;;;;;;3.33;2.15;;;24.20;61.60;;;;;;6707140;88;20190;-76
2021/05/29 16:52:49;;;;;;;3.33;2.40;;;23.80;61.60;;;;;;6704650;88;20706;-77
2021/05/29 17:02:50;;;;;;;3.40;1.87;;;23.10;63.80;;;;;;6700637;88;20244;-77
2021/05/29 17:12:51;;;;;;;3.25;2.08;;;23.20;63.90;;;;;;6702134;88;20681;-77
2021/05/29 17:22:52;;;;;;;3.25;1.85;;;24.50;60.60;;;;;;6703123;88;20650;-77
2021/05/29 17:32:52;;;;;;;4.45;1.92;;;23.10;61.10;;;;;;6712717;88;20172;-77
2021/05/29 17:42:53;;;;;;;3.15;1.95;;;24.10;60.40;;;;;;6723472;88;20761;-77
2021/05/29 17:52:53;;;;;;;3.70;2.05;;;24.10;60.40;;;;;;6713761;88;20216;-77
2021/05/29 18:02:55;;;;;;;3.10;1.67;;;23.20;61.50;;;;;;6709189;88;20190;-77
2021/05/29 18:12:58;;;;;;;3.70;2.10;;;22.10;62.50;;;;;;6712334;88;20209;-77
2021/05/29 18:22:59;;;;;;;4.25;1.92;;;21.50;62.70;;;;;;6702555;88;20350;-77
2021/05/29 18:33:02;;;;;;;4.32;1.98;;;21.20;63.80;;;;;;6709983;88;20232;-77
2021/05/29 18:43:02;;;;;;;3.78;2.10;;;21.00;63.00;;;;;;6712949;88;20298;-77
2021/05/29 18:53:03;;;;;;;2.80;1.90;;;20.40;64.70;;;;;;6705954;88;20355;-77
2021/05/29 19:03:12;;;;;;;3.20;2.10;;;19.90;67.80;;;;;;6710899;88;20182;-77
2021/05/29 19:13:12;;;;;;;4.47;2.40;;;19.30;70.20;;;;;;6702877;88;20351;-76
2021/05/29 19:23:16;;;;;;;5.18;2.75;;;18.70;73.20;;;;;;6717528;88;20202;-77
2021/05/29 19:44:25;;;;;;;4.90;2.70;;;17.80;83.10;;;;;;6709159;88;20214;-78
2021/05/29 20:25:14;;;;;;;5.47;3.83;;;16.50;96.00;;;;;;6716430;88;20205;-77
2021/05/29 20:35:15;;;;;;;6.37;4.22;;;16.20;98.40;;;;;;6722350;88;20183;-76
2021/05/29 20:45:24;;;;;;;10.20;5.10;;;15.80;99.90;;;;;;6721239;88;20191;-76
2021/05/29 20:55:25;;;;;;;7.70;5.25;;;15.70;99.90;;;;;;6713255;88;20196;-76
2021/05/29 21:05:26;;;;;;;8.80;6.10;;;15.30;99.90;;;;;;6705984;88;20233;-77
2021/05/29 21:15:32;;;;;;;12.13;6.95;;;15.10;99.90;;;;;;6704398;88;20905;-76
2021/05/29 21:25:33;;;;;;;9.07;6.15;;;15.00;99.90;;;;;;6707624;88;20205;-77
2021/05/29 21:35:34;;;;;;;11.30;7.70;;;14.60;99.90;;;;;;6707561;88;20197;-76
2021/05/29 22:06:38;;;;;;;11.85;7.47;;;14.30;99.90;;;;;;6748001;88;20520;-78
2021/05/29 22:37:18;;;;;;;9.80;6.78;;;13.90;99.90;;;;;;6723378;88;20702;-81
2021/05/29 22:47:18;;;;;;;11.70;7.20;;;14.00;99.90;;;;;;6723582;88;20196;-80
2021/05/29 22:57:19;;;;;;;12.00;7.15;;;13.80;99.90;;;;;;6723603;88;20174;-82
2021/05/29 23:07:20;;;;;;;11.80;7.00;;;13.30;99.90;;;;;;6724802;88;20199;-79
2021/05/29 23:17:20;;;;;;;10.75;6.93;;;13.10;99.90;;;;;;6722296;88;20751;-82
2021/05/29 23:27:21;;;;;;;10.20;7.00;;;13.00;99.90;;;;;;6723149;88;20197;-80
2021/05/29 23:37:21;;;;;;;11.35;6.95;;;12.90;99.90;;;;;;6723515;88;20675;-80
2021/05/29 23:47:22;;;;;;;11.05;7.15;;;12.90;99.90;;;;;;6723082;88;20174;-80
2021/05/29 23:57:23;;;;;;;11.35;7.40;;;12.70;99.90;;;;;;6723519;88;20899;-82
